Historique des mesures à Cassis (13260), France
Quotidien Résumé Fevrier 11, 2017 Unités:  US    Métrique   Métrique/US
« Précédent (Jour)
Suivant (Jour) »
Quotidien Hebdomadaire Mensuel Annuel Période au choix
  Maximum: Minimum: Moyenne:
Température: 32 °F 48.2 °F 51.1 °F
Point de rosée: 32 °F 40.3 °F 41.9 °F
Humidité: Humidity % 63 % 67 %
Vitesse du vent: WindSpeedKMH mph 0.0 mph 3.5 mph
Rafales: WindSpeedGustKMH mph - -
Vent:- - SSE
Pression: 0 in 30 in -
Précipitations: 0 in    
Historical Graphs
 
 
Mesures pour : Fevrier 11, 2017
Heure Temperature Point de rosée Pression Vent Vitesse du vent Rafales Humidité Pluie (par heure) Conditions
32 °F 32 °F 0 in Calm     Humidity % 0 in SoftwareType W/m2
00:11 48.9 °F 40.3 °F 30 in Calm   1.4 mph 72 % 0 in open2300-1.11 W/m2
01:10 49.3 °F 41 °F 30 in Calm   4.0 mph 73 % 0 in open2300-1.11 W/m2
02:11 48.2 °F 40.3 °F 30 in Calm   1.8 mph 74 % 0 in open2300-1.11 W/m2
03:10 48.6 °F 40.3 °F 30 in NW 7.2 mph 7.2 mph 73 % 0 in open2300-1.11 W/m2
04:11 48.9 °F 40.6 °F 30 in NNW 5.0 mph 5.0 mph 73 % 0 in open2300-1.11 W/m2
05:10 48.9 °F 40.6 °F 30 in Calm   1.8 mph 73 % 0 in open2300-1.11 W/m2
06:11 49.5 °F 41.7 °F 30 in Calm     75 % 0 in open2300-1.11 W/m2
07:10 49.8 °F 42.4 °F 30 in ENE 1.1 mph 2.9 mph 76 % 0 in open2300-1.11 W/m2
08:11 50.2 °F 42.4 °F 30 in SE 7.2 mph 7.2 mph 75 % 0 in open2300-1.11 W/m2
09:10 51.1 °F 43.3 °F 30 in Calm   9.3 mph 75 % 0 in open2300-1.11 W/m2
10:11 52.5 °F 43.3 °F 30 in South 6.4 mph 11.1 mph 71 % 0 in open2300-1.11 W/m2
11:10 54.3 °F 44.1 °F 30 in ESE 10.5 mph 10.5 mph 68 % 0 in open2300-1.11 W/m2
12:11 55.2 °F 44.4 °F 30 in SE 3.5 mph 6.1 mph 67 % 0 in open2300-1.11 W/m2
13:10 55 °F 44.8 °F 30 in SE 8.7 mph 10.5 mph 68 % 0 in open2300-1.11 W/m2
14:11 54.9 °F 44.4 °F 30 in ENE 1.4 mph 3.5 mph 68 % 0 in open2300-1.11 W/m2
15:10 54.1 °F 43.9 °F 30 in Calm   5.0 mph 68 % 0 in open2300-1.11 W/m2
16:11 54.1 °F 43.9 °F 30 in Calm   6.8 mph 68 % 0 in open2300-1.11 W/m2
17:10 53.8 °F 43.3 °F 30 in ESE 2.9 mph 5.0 mph 68 % 0 in open2300-1.11 W/m2
18:11 53.4 °F 42.3 °F 30 in SE 4.7 mph 7.9 mph 66 % 0 in open2300-1.11 W/m2
19:10 53.2 °F 41.4 °F 30 in SE 5.0 mph 6.1 mph 64 % 0 in open2300-1.11 W/m2
20:11 52.9 °F 41 °F 30 in ESE 6.1 mph 6.1 mph 64 % 0 in open2300-1.11 W/m2
21:10 53.4 °F 41.2 °F 30 in Calm   6.8 mph 63 % 0 in open2300-1.11 W/m2
22:11 52.9 °F 41.4 °F 30 in ESE 17.7 mph 17.7 mph 65 % 0 in open2300-1.11 W/m2
23:10 52.7 °F 42.1 °F 30 in SSE 1.1 mph 8.2 mph 67 % 0 in open2300-1.11 W/m2
Observations météo à CASSIS
WU-History script by Weather Underground - 1 mb